ETH605 ZBAA-HAAB
Flight info
| Callsign | ETH605 |
|---|---|
| Flight time | N/A |
| Altitude | 34100 |
| Route | K0920S1040 IDKEX5Y IDKEX B339 ASILA A575 UPREK DCT NUKTI B215 IBANO W187 TUSLI W112 PURPA/N0495F341 G325 PG T385 TAPDO G652 GEPOT B400 NODMA L702 ULALI T701 TORBA UB535 LAKBE LAKBE3A |
| Aircraft | A359/H-SDE2E3GHIJ3J4J5LM1ORWXY/LB1D1 |
Departure
| Time | N/A |
|---|---|
| Airport | Beijing Capital International Airport (ZBAA) |
Arrival
| Time | 2026-05-05 10:50 |
|---|---|
| Airport | Addis Ababa Bole International Airport (HAAB) |
| Time | Latitude | Longitude | Altitude | Speed | Heading |
|---|---|---|---|---|---|
| 2026-05-05 08:46 | 15.30258 | 53.26940 | 35265 ft | 499 kts | 245° |
| 2026-05-05 08:46 | 15.28798 | 53.23673 | 35489 ft | 499 kts | 245° |
| 2026-05-05 08:47 | 15.27360 | 53.20462 | 35709 ft | 498 kts | 245° |
| 2026-05-05 08:47 | 15.25902 | 53.17206 | 35833 ft | 500 kts | 245° |
| 2026-05-05 08:47 | 15.24430 | 53.13920 | 35857 ft | 503 kts | 245° |
| 2026-05-05 08:48 | 15.21510 | 53.07398 | 35853 ft | 502 kts | 245° |
| 2026-05-05 08:48 | 15.18560 | 53.00814 | 35854 ft | 502 kts | 245° |
| 2026-05-05 08:49 | 15.15619 | 52.94256 | 35854 ft | 502 kts | 245° |
| 2026-05-05 08:49 | 15.12703 | 52.87757 | 35853 ft | 502 kts | 245° |
| 2026-05-05 08:50 | 15.09754 | 52.81195 | 35858 ft | 502 kts | 245° |
| 2026-05-05 08:50 | 15.06814 | 52.74656 | 35857 ft | 502 kts | 245° |
| 2026-05-05 08:51 | 15.03863 | 52.68099 | 35858 ft | 502 kts | 245° |
| 2026-05-05 08:51 | 15.00915 | 52.61555 | 35857 ft | 502 kts | 245° |
| 2026-05-05 08:52 | 14.97982 | 52.55050 | 35857 ft | 502 kts | 245° |
| 2026-05-05 08:52 | 14.95026 | 52.48501 | 35855 ft | 502 kts | 245° |
| 2026-05-05 08:53 | 14.92074 | 52.41963 | 35854 ft | 502 kts | 245° |
| 2026-05-05 08:53 | 14.89119 | 52.35428 | 35858 ft | 502 kts | 245° |
| 2026-05-05 08:54 | 14.86175 | 52.28924 | 35858 ft | 502 kts | 245° |
| 2026-05-05 08:54 | 14.83190 | 52.22410 | 35857 ft | 502 kts | 244° |
| 2026-05-05 08:55 | 14.80177 | 52.15901 | 35861 ft | 502 kts | 244° |
| 2026-05-05 08:55 | 14.77161 | 52.09381 | 35861 ft | 502 kts | 244° |
| 2026-05-05 08:56 | 14.74171 | 52.02908 | 35859 ft | 502 kts | 244° |
| 2026-05-05 08:56 | 14.71162 | 51.96394 | 35860 ft | 502 kts | 244° |
| 2026-05-05 08:57 | 14.68156 | 51.89894 | 35857 ft | 502 kts | 244° |
| 2026-05-05 08:57 | 14.65138 | 51.83373 | 35855 ft | 502 kts | 244° |
| 2026-05-05 08:58 | 14.62158 | 51.76843 | 35855 ft | 502 kts | 244° |
| 2026-05-05 08:58 | 14.59213 | 51.70360 | 35857 ft | 502 kts | 244° |
| 2026-05-05 08:59 | 14.56241 | 51.63842 | 35857 ft | 502 kts | 244° |
| 2026-05-05 08:59 | 14.53262 | 51.57329 | 35857 ft | 502 kts | 244° |
| 2026-05-05 09:00 | 14.50277 | 51.50810 | 35858 ft | 502 kts | 244° |
| 2026-05-05 09:00 | 14.47287 | 51.44288 | 35861 ft | 502 kts | 244° |
| 2026-05-05 09:01 | 14.44320 | 51.37818 | 35855 ft | 502 kts | 244° |
| 2026-05-05 09:01 | 14.41331 | 51.31307 | 35853 ft | 502 kts | 244° |
| 2026-05-05 09:02 | 14.38336 | 51.24792 | 35863 ft | 503 kts | 244° |
| 2026-05-05 09:02 | 14.35338 | 51.18275 | 35867 ft | 502 kts | 244° |
| 2026-05-05 09:03 | 14.32361 | 51.11806 | 35858 ft | 502 kts | 244° |
| 2026-05-05 09:03 | 14.29366 | 51.05303 | 35860 ft | 503 kts | 244° |
| 2026-05-05 09:04 | 14.26369 | 50.98804 | 35858 ft | 502 kts | 244° |
| 2026-05-05 09:04 | 14.23365 | 50.92293 | 35856 ft | 502 kts | 244° |
| 2026-05-05 09:05 | 14.20363 | 50.85792 | 35852 ft | 502 kts | 244° |
| 2026-05-05 09:05 | 14.17382 | 50.79342 | 35849 ft | 502 kts | 244° |
| 2026-05-05 09:06 | 14.14371 | 50.72835 | 35854 ft | 502 kts | 244° |
| 2026-05-05 09:06 | 14.11370 | 50.66355 | 35851 ft | 502 kts | 244° |
| 2026-05-05 09:07 | 14.08200 | 50.59955 | 35851 ft | 501 kts | 240° |
| 2026-05-05 09:07 | 14.04765 | 50.53753 | 35850 ft | 501 kts | 239° |
| 2026-05-05 09:08 | 14.01317 | 50.47521 | 35851 ft | 501 kts | 240° |
| 2026-05-05 09:08 | 13.97923 | 50.41258 | 35848 ft | 501 kts | 240° |
| 2026-05-05 09:09 | 13.94545 | 50.34977 | 35848 ft | 501 kts | 240° |
| 2026-05-05 09:09 | 13.91170 | 50.28702 | 35848 ft | 501 kts | 240° |
| 2026-05-05 09:10 | 13.87793 | 50.22436 | 35849 ft | 501 kts | 240° |
| 2026-05-05 09:10 | 13.84409 | 50.16165 | 35845 ft | 501 kts | 240° |
| 2026-05-05 09:11 | 13.81028 | 50.09907 | 35846 ft | 501 kts | 240° |
| 2026-05-05 09:11 | 13.77641 | 50.03643 | 35845 ft | 501 kts | 240° |
| 2026-05-05 09:12 | 13.74296 | 49.97413 | 35845 ft | 501 kts | 240° |
| 2026-05-05 09:12 | 13.70947 | 49.91152 | 35845 ft | 500 kts | 240° |
| 2026-05-05 09:13 | 13.67583 | 49.84876 | 35845 ft | 500 kts | 240° |
| 2026-05-05 09:13 | 13.64241 | 49.78659 | 35848 ft | 500 kts | 240° |
| 2026-05-05 09:14 | 13.60880 | 49.72414 | 35846 ft | 500 kts | 240° |
| 2026-05-05 09:14 | 13.57516 | 49.66166 | 35844 ft | 500 kts | 240° |
| 2026-05-05 09:15 | 13.54149 | 49.59916 | 35845 ft | 500 kts | 240° |
| 2026-05-05 09:15 | 13.50779 | 49.53666 | 35844 ft | 500 kts | 240° |
| 2026-05-05 09:16 | 13.47408 | 49.47420 | 35841 ft | 499 kts | 240° |
| 2026-05-05 09:16 | 13.44062 | 49.41223 | 35843 ft | 499 kts | 240° |
| 2026-05-05 09:17 | 13.40688 | 49.34978 | 35840 ft | 499 kts | 240° |
| 2026-05-05 09:17 | 13.37324 | 49.28757 | 35842 ft | 499 kts | 240° |
| 2026-05-05 09:18 | 13.33953 | 49.22528 | 35838 ft | 499 kts | 240° |
| 2026-05-05 09:18 | 13.30582 | 49.16297 | 35840 ft | 499 kts | 240° |
| 2026-05-05 09:19 | 13.27245 | 49.10047 | 35840 ft | 499 kts | 240° |
| 2026-05-05 09:19 | 13.23940 | 49.03833 | 35839 ft | 499 kts | 240° |
| 2026-05-05 09:20 | 13.20611 | 48.97590 | 35840 ft | 499 kts | 240° |
| 2026-05-05 09:20 | 13.17249 | 48.91303 | 35837 ft | 499 kts | 240° |
| 2026-05-05 09:21 | 13.13934 | 48.85110 | 35837 ft | 499 kts | 240° |
| 2026-05-05 09:21 | 13.10593 | 48.78871 | 35839 ft | 499 kts | 240° |
| 2026-05-05 09:22 | 13.07243 | 48.72622 | 35840 ft | 499 kts | 240° |
| 2026-05-05 09:22 | 13.03900 | 48.66389 | 35843 ft | 499 kts | 240° |
| 2026-05-05 09:23 | 13.00571 | 48.60186 | 35840 ft | 499 kts | 240° |
| 2026-05-05 09:23 | 12.97225 | 48.53956 | 35840 ft | 499 kts | 240° |
| 2026-05-05 09:24 | 12.93869 | 48.47712 | 35837 ft | 499 kts | 240° |
| 2026-05-05 09:24 | 12.90521 | 48.41487 | 35839 ft | 499 kts | 240° |
| 2026-05-05 09:25 | 12.87168 | 48.35257 | 35839 ft | 499 kts | 240° |
| 2026-05-05 09:25 | 12.83833 | 48.29065 | 35841 ft | 499 kts | 240° |
| 2026-05-05 09:26 | 12.80475 | 48.22836 | 35839 ft | 499 kts | 240° |
| 2026-05-05 09:26 | 12.77118 | 48.16611 | 35837 ft | 499 kts | 240° |
| 2026-05-05 09:27 | 12.73778 | 48.10423 | 35836 ft | 499 kts | 240° |
| 2026-05-05 09:27 | 12.70411 | 48.04191 | 35837 ft | 499 kts | 240° |
| 2026-05-05 09:28 | 12.67050 | 47.97972 | 35837 ft | 500 kts | 240° |
| 2026-05-05 09:28 | 12.63682 | 47.91744 | 35837 ft | 500 kts | 240° |
| 2026-05-05 09:29 | 12.60316 | 47.85525 | 35837 ft | 500 kts | 240° |
| 2026-05-05 09:29 | 12.56968 | 47.79344 | 35836 ft | 500 kts | 240° |
| 2026-05-05 09:30 | 12.53595 | 47.73121 | 35837 ft | 500 kts | 240° |
| 2026-05-05 09:30 | 12.50218 | 47.66895 | 35837 ft | 500 kts | 240° |
| 2026-05-05 09:31 | 12.46866 | 47.60718 | 35837 ft | 500 kts | 240° |
| 2026-05-05 09:31 | 12.43487 | 47.54496 | 35840 ft | 500 kts | 240° |
| 2026-05-05 09:32 | 12.40736 | 47.47974 | 35840 ft | 502 kts | 255° |
| 2026-05-05 09:32 | 12.39810 | 47.40915 | 35842 ft | 502 kts | 265° |
| 2026-05-05 09:33 | 12.39384 | 47.33789 | 35844 ft | 502 kts | 266° |
| 2026-05-05 09:33 | 12.38978 | 47.26646 | 35839 ft | 502 kts | 266° |
| 2026-05-05 09:34 | 12.38533 | 47.19579 | 35842 ft | 502 kts | 265° |
| 2026-05-05 09:34 | 12.38062 | 47.12454 | 35839 ft | 502 kts | 265° |
| 2026-05-05 09:35 | 12.37585 | 47.05323 | 35839 ft | 502 kts | 265° |
| 2026-05-05 09:35 | 12.36907 | 46.94689 | 35839 ft | 502 kts | 266° |
| 2026-05-05 09:36 | 12.36461 | 46.87576 | 35838 ft | 502 kts | 266° |
| 2026-05-05 09:36 | 12.36010 | 46.80448 | 35836 ft | 501 kts | 266° |
| 2026-05-05 09:37 | 12.35556 | 46.73331 | 35837 ft | 501 kts | 266° |
| 2026-05-05 09:37 | 12.35100 | 46.66219 | 35836 ft | 501 kts | 266° |
| 2026-05-05 09:38 | 12.34647 | 46.59165 | 35837 ft | 501 kts | 266° |
| 2026-05-05 09:38 | 12.34187 | 46.52047 | 35838 ft | 501 kts | 266° |
| 2026-05-05 09:39 | 12.33727 | 46.44951 | 35837 ft | 501 kts | 266° |
| 2026-05-05 09:39 | 12.33264 | 46.37844 | 35837 ft | 500 kts | 266° |
| 2026-05-05 09:40 | 12.32803 | 46.30792 | 35838 ft | 500 kts | 266° |
| 2026-05-05 09:40 | 12.32337 | 46.23693 | 35837 ft | 500 kts | 266° |
| 2026-05-05 09:41 | 12.31870 | 46.16603 | 35838 ft | 500 kts | 266° |
| 2026-05-05 09:41 | 12.31401 | 46.09500 | 35839 ft | 500 kts | 266° |
| 2026-05-05 09:42 | 12.30929 | 46.02399 | 35841 ft | 500 kts | 266° |
| 2026-05-05 09:42 | 12.30460 | 45.95357 | 35841 ft | 500 kts | 266° |
| 2026-05-05 09:43 | 12.29985 | 45.88265 | 35843 ft | 500 kts | 265° |
| 2026-05-05 09:43 | 12.29508 | 45.81165 | 35844 ft | 500 kts | 266° |
| 2026-05-05 09:44 | 12.29029 | 45.74060 | 35845 ft | 500 kts | 265° |
| 2026-05-05 09:44 | 12.28552 | 45.67019 | 35846 ft | 500 kts | 265° |
| 2026-05-05 09:45 | 12.28071 | 45.59929 | 35846 ft | 500 kts | 265° |
| 2026-05-05 09:45 | 12.27586 | 45.52828 | 35845 ft | 500 kts | 265° |
| 2026-05-05 09:46 | 12.27100 | 45.45728 | 35844 ft | 501 kts | 265° |
| 2026-05-05 09:46 | 12.26612 | 45.38633 | 35845 ft | 501 kts | 265° |
| 2026-05-05 09:47 | 12.26152 | 45.31574 | 35847 ft | 501 kts | 266° |
| 2026-05-05 09:47 | 12.25703 | 45.24463 | 35845 ft | 501 kts | 266° |
| 2026-05-05 09:48 | 12.25249 | 45.17345 | 35848 ft | 501 kts | 266° |
| 2026-05-05 09:48 | 12.24791 | 45.10246 | 35845 ft | 501 kts | 266° |
| 2026-05-05 09:49 | 12.24332 | 45.03184 | 35848 ft | 501 kts | 266° |
| 2026-05-05 09:49 | 12.23869 | 44.96078 | 35846 ft | 501 kts | 265° |
| 2026-05-05 09:50 | 12.23403 | 44.88956 | 35847 ft | 501 kts | 265° |
| 2026-05-05 09:50 | 12.22935 | 44.81844 | 35842 ft | 501 kts | 265° |
| 2026-05-05 09:51 | 12.22471 | 44.74789 | 35845 ft | 502 kts | 265° |
| 2026-05-05 09:51 | 12.22000 | 44.67671 | 35843 ft | 501 kts | 265° |
| 2026-05-05 09:52 | 12.21527 | 44.60555 | 35841 ft | 501 kts | 265° |
| 2026-05-05 09:52 | 12.21053 | 44.53450 | 35841 ft | 502 kts | 265° |
| 2026-05-05 09:53 | 12.20579 | 44.46380 | 35839 ft | 501 kts | 265° |
| 2026-05-05 09:53 | 12.20180 | 44.40439 | 35837 ft | 501 kts | 265° |
| 2026-05-05 09:54 | 12.19622 | 44.32176 | 35835 ft | 501 kts | 265° |
| 2026-05-05 09:54 | 12.19219 | 44.26224 | 35836 ft | 501 kts | 265° |
| 2026-05-05 09:55 | 12.18739 | 44.19163 | 35833 ft | 501 kts | 265° |
| 2026-05-05 09:55 | 12.18254 | 44.12060 | 35835 ft | 501 kts | 265° |
| 2026-05-05 09:56 | 12.17322 | 44.05031 | 35830 ft | 501 kts | 254° |
| 2026-05-05 09:56 | 12.14440 | 43.98589 | 35827 ft | 499 kts | 237° |
| 2026-05-05 09:57 | 12.10538 | 43.92737 | 35826 ft | 499 kts | 234° |
| 2026-05-05 09:57 | 12.06563 | 43.86989 | 35825 ft | 499 kts | 234° |
| 2026-05-05 09:58 | 12.02591 | 43.81184 | 35826 ft | 499 kts | 235° |
| 2026-05-05 09:58 | 11.98640 | 43.75351 | 35824 ft | 499 kts | 235° |
| 2026-05-05 09:59 | 11.94705 | 43.69528 | 35823 ft | 499 kts | 235° |
| 2026-05-05 09:59 | 11.90761 | 43.63697 | 35823 ft | 499 kts | 235° |
| 2026-05-05 10:00 | 11.86838 | 43.57900 | 35824 ft | 499 kts | 236° |
| 2026-05-05 10:00 | 11.82958 | 43.52025 | 35824 ft | 499 kts | 236° |
| 2026-05-05 10:01 | 11.79111 | 43.46142 | 35821 ft | 499 kts | 236° |
| 2026-05-05 10:01 | 11.75240 | 43.40246 | 35817 ft | 499 kts | 236° |
| 2026-05-05 10:02 | 11.71366 | 43.34366 | 35824 ft | 500 kts | 236° |
| 2026-05-05 10:02 | 11.67505 | 43.28517 | 35823 ft | 500 kts | 236° |
| 2026-05-05 10:03 | 11.63623 | 43.22637 | 35822 ft | 500 kts | 236° |
| 2026-05-05 10:03 | 11.59732 | 43.16747 | 35822 ft | 501 kts | 236° |
| 2026-05-05 10:04 | 11.55833 | 43.10847 | 35823 ft | 501 kts | 236° |
| 2026-05-05 10:04 | 11.52359 | 43.04758 | 35824 ft | 501 kts | 241° |
| 2026-05-05 10:05 | 11.48979 | 42.98543 | 35827 ft | 501 kts | 241° |
| 2026-05-05 10:05 | 11.45605 | 42.92339 | 35827 ft | 501 kts | 241° |
| 2026-05-05 10:06 | 11.42230 | 42.86134 | 35831 ft | 501 kts | 241° |
| 2026-05-05 10:06 | 11.38850 | 42.79921 | 35831 ft | 501 kts | 241° |
| 2026-05-05 10:07 | 11.35471 | 42.73717 | 35834 ft | 501 kts | 241° |
| 2026-05-05 10:07 | 11.32111 | 42.67548 | 35832 ft | 501 kts | 241° |
| 2026-05-05 10:08 | 11.28728 | 42.61343 | 35832 ft | 501 kts | 241° |
| 2026-05-05 10:08 | 11.25345 | 42.55142 | 35826 ft | 501 kts | 241° |
| 2026-05-05 10:09 | 11.21963 | 42.48944 | 35822 ft | 501 kts | 241° |
| 2026-05-05 10:09 | 11.18591 | 42.42769 | 35823 ft | 501 kts | 241° |
| 2026-05-05 10:10 | 11.15200 | 42.36565 | 35820 ft | 502 kts | 241° |
| 2026-05-05 10:10 | 11.11805 | 42.30354 | 35816 ft | 502 kts | 241° |
| 2026-05-05 10:11 | 11.08413 | 42.24155 | 35812 ft | 502 kts | 241° |
| 2026-05-05 10:11 | 11.05012 | 42.17942 | 35808 ft | 502 kts | 241° |
| 2026-05-05 10:12 | 11.01481 | 42.11866 | 35812 ft | 503 kts | 237° |
| 2026-05-05 10:12 | 10.97605 | 42.05943 | 35809 ft | 503 kts | 237° |
| 2026-05-05 10:13 | 10.93788 | 41.99989 | 35813 ft | 503 kts | 237° |
| 2026-05-05 10:13 | 10.89977 | 41.94010 | 35812 ft | 503 kts | 237° |
| 2026-05-05 10:14 | 10.86154 | 41.88003 | 35814 ft | 503 kts | 237° |
| 2026-05-05 10:14 | 10.82351 | 41.82029 | 35815 ft | 503 kts | 237° |
| 2026-05-05 10:15 | 10.78554 | 41.76066 | 35814 ft | 503 kts | 237° |
| 2026-05-05 10:15 | 10.74778 | 41.70139 | 35815 ft | 503 kts | 237° |
| 2026-05-05 10:16 | 10.70973 | 41.64171 | 35819 ft | 503 kts | 237° |
| 2026-05-05 10:16 | 10.67178 | 41.58220 | 35817 ft | 503 kts | 237° |
| 2026-05-05 10:17 | 10.63358 | 41.52234 | 35821 ft | 503 kts | 237° |
| 2026-05-05 10:17 | 10.59555 | 41.46276 | 35822 ft | 503 kts | 237° |
| 2026-05-05 10:18 | 10.55752 | 41.40325 | 35821 ft | 503 kts | 237° |
| 2026-05-05 10:18 | 10.51942 | 41.34363 | 35817 ft | 503 kts | 237° |
| 2026-05-05 10:19 | 10.48157 | 41.28444 | 35818 ft | 502 kts | 237° |
| 2026-05-05 10:19 | 10.44355 | 41.22503 | 35817 ft | 502 kts | 237° |
| 2026-05-05 10:20 | 10.40542 | 41.16548 | 35819 ft | 502 kts | 237° |
| 2026-05-05 10:20 | 10.36731 | 41.10598 | 35817 ft | 502 kts | 237° |
| 2026-05-05 10:21 | 10.32919 | 41.04650 | 35819 ft | 502 kts | 237° |
| 2026-05-05 10:21 | 10.29109 | 40.98707 | 35822 ft | 502 kts | 237° |
| 2026-05-05 10:22 | 10.25299 | 40.92770 | 35821 ft | 502 kts | 237° |
| 2026-05-05 10:22 | 10.21805 | 40.87327 | 35818 ft | 502 kts | 237° |
| 2026-05-05 10:23 | 10.17988 | 40.81383 | 35817 ft | 502 kts | 237° |
| 2026-05-05 10:23 | 10.14176 | 40.75450 | 35817 ft | 502 kts | 237° |
| 2026-05-05 10:24 | 10.10363 | 40.69519 | 35818 ft | 502 kts | 237° |
| 2026-05-05 10:24 | 10.06569 | 40.63620 | 35818 ft | 502 kts | 237° |
| 2026-05-05 10:25 | 10.02756 | 40.57694 | 35820 ft | 502 kts | 237° |
| 2026-05-05 10:25 | 9.98944 | 40.51773 | 35824 ft | 502 kts | 237° |
| 2026-05-05 10:26 | 9.95120 | 40.45837 | 35824 ft | 502 kts | 237° |
| 2026-05-05 10:26 | 9.91306 | 40.39921 | 35824 ft | 502 kts | 237° |
| 2026-05-05 10:27 | 9.87516 | 40.34042 | 35833 ft | 502 kts | 237° |
| 2026-05-05 10:27 | 9.83698 | 40.28124 | 35833 ft | 502 kts | 237° |
| 2026-05-05 10:28 | 9.79871 | 40.22194 | 35842 ft | 501 kts | 237° |
| 2026-05-05 10:28 | 9.76049 | 40.16277 | 35854 ft | 502 kts | 237° |
| 2026-05-05 10:29 | 9.72224 | 40.10357 | 35868 ft | 502 kts | 237° |
| 2026-05-05 10:29 | 9.68404 | 40.04448 | 35661 ft | 501 kts | 237° |
| 2026-05-05 10:30 | 9.66496 | 40.01497 | 35433 ft | 501 kts | 237° |
| 2026-05-05 10:30 | 9.64581 | 39.98537 | 35215 ft | 501 kts | 237° |
| 2026-05-05 10:30 | 9.62695 | 39.95622 | 34992 ft | 502 kts | 237° |
| 2026-05-05 10:30 | 9.60785 | 39.92671 | 34777 ft | 503 kts | 237° |
| 2026-05-05 10:31 | 9.58869 | 39.89710 | 34560 ft | 504 kts | 237° |
| 2026-05-05 10:31 | 9.56930 | 39.86716 | 34334 ft | 505 kts | 237° |
| 2026-05-05 10:31 | 9.55010 | 39.83751 | 34121 ft | 506 kts | 237° |
| 2026-05-05 10:31 | 9.53077 | 39.80767 | 33891 ft | 506 kts | 237° |
| 2026-05-05 10:32 | 9.51144 | 39.77784 | 33655 ft | 507 kts | 237° |
| 2026-05-05 10:32 | 9.49202 | 39.74788 | 33406 ft | 507 kts | 237° |
| 2026-05-05 10:32 | 9.47268 | 39.71806 | 33167 ft | 507 kts | 237° |
| 2026-05-05 10:32 | 9.45351 | 39.68850 | 32919 ft | 508 kts | 237° |
| 2026-05-05 10:33 | 9.43392 | 39.65830 | 32294 ft | 507 kts | 237° |
| 2026-05-05 10:33 | 9.41497 | 39.62911 | 31532 ft | 508 kts | 237° |
| 2026-05-05 10:33 | 9.39507 | 39.59845 | 30677 ft | 510 kts | 237° |
| 2026-05-05 10:33 | 9.37552 | 39.56834 | 29798 ft | 513 kts | 237° |
| 2026-05-05 10:34 | 9.35591 | 39.53811 | 28853 ft | 515 kts | 237° |
| 2026-05-05 10:34 | 9.33656 | 39.50829 | 28209 ft | 511 kts | 237° |
| 2026-05-05 10:34 | 9.31733 | 39.47866 | 27603 ft | 506 kts | 237° |
| 2026-05-05 10:34 | 9.29773 | 39.44850 | 26971 ft | 502 kts | 237° |
| 2026-05-05 10:35 | 9.27856 | 39.41899 | 26359 ft | 498 kts | 237° |
| 2026-05-05 10:35 | 9.25955 | 39.38973 | 25735 ft | 495 kts | 237° |
| 2026-05-05 10:35 | 9.24070 | 39.36075 | 25119 ft | 492 kts | 237° |
| 2026-05-05 10:35 | 9.22201 | 39.33199 | 24521 ft | 489 kts | 237° |
| 2026-05-05 10:36 | 9.20362 | 39.30373 | 23913 ft | 486 kts | 237° |
| 2026-05-05 10:36 | 9.18514 | 39.27528 | 23209 ft | 473 kts | 237° |
| 2026-05-05 10:36 | 9.16755 | 39.24820 | 22588 ft | 449 kts | 237° |
| 2026-05-05 10:36 | 9.15081 | 39.22243 | 22032 ft | 428 kts | 236° |
| 2026-05-05 10:37 | 9.13478 | 39.19778 | 21508 ft | 409 kts | 236° |
| 2026-05-05 10:37 | 9.11949 | 39.17425 | 21042 ft | 391 kts | 236° |
| 2026-05-05 10:37 | 9.11421 | 39.16614 | 20868 ft | 386 kts | 236° |
| 2026-05-05 10:37 | 9.09940 | 39.14334 | 20276 ft | 374 kts | 236° |
| 2026-05-05 10:38 | 9.08537 | 39.12175 | 19812 ft | 362 kts | 236° |
| 2026-05-05 10:38 | 9.07167 | 39.10069 | 19444 ft | 360 kts | 236° |
| 2026-05-05 10:38 | 9.05781 | 39.07939 | 19010 ft | 362 kts | 236° |
| 2026-05-05 10:38 | 9.04417 | 39.05843 | 18615 ft | 360 kts | 236° |
| 2026-05-05 10:39 | 9.03023 | 39.03702 | 18074 ft | 359 kts | 236° |
| 2026-05-05 10:39 | 9.01686 | 39.01650 | 17588 ft | 350 kts | 236° |
| 2026-05-05 10:39 | 9.00348 | 38.99597 | 17139 ft | 349 kts | 236° |
| 2026-05-05 10:39 | 8.99021 | 38.97561 | 16701 ft | 347 kts | 236° |
| 2026-05-05 10:40 | 8.97693 | 38.95522 | 16237 ft | 345 kts | 236° |
| 2026-05-05 10:40 | 8.96379 | 38.93505 | 15784 ft | 343 kts | 236° |
| 2026-05-05 10:40 | 8.95066 | 38.91489 | 15334 ft | 340 kts | 236° |
| 2026-05-05 10:40 | 8.93775 | 38.89509 | 15084 ft | 339 kts | 237° |
| 2026-05-05 10:41 | 8.92468 | 38.87503 | 14947 ft | 340 kts | 237° |
| 2026-05-05 10:41 | 8.91177 | 38.85525 | 14646 ft | 337 kts | 237° |
| 2026-05-05 10:41 | 8.89886 | 38.83542 | 14426 ft | 335 kts | 237° |
| 2026-05-05 10:41 | 8.88608 | 38.81580 | 14258 ft | 334 kts | 237° |
| 2026-05-05 10:42 | 8.86109 | 38.77745 | 13945 ft | 321 kts | 237° |
| 2026-05-05 10:42 | 8.84900 | 38.75887 | 13763 ft | 312 kts | 236° |
| 2026-05-05 10:42 | 8.83725 | 38.74084 | 13569 ft | 304 kts | 236° |
| 2026-05-05 10:43 | 8.82575 | 38.72323 | 13423 ft | 296 kts | 236° |
| 2026-05-05 10:43 | 8.81446 | 38.70595 | 13163 ft | 294 kts | 236° |
| 2026-05-05 10:43 | 8.80320 | 38.68869 | 12825 ft | 294 kts | 236° |
| 2026-05-05 10:43 | 8.79274 | 38.67112 | 12450 ft | 292 kts | 243° |
| 2026-05-05 10:44 | 8.78894 | 38.65162 | 12178 ft | 285 kts | 274° |
| 2026-05-05 10:44 | 8.79433 | 38.63286 | 11959 ft | 273 kts | 298° |
| 2026-05-05 10:44 | 8.80415 | 38.61692 | 11711 ft | 263 kts | 312° |
| 2026-05-05 10:44 | 8.81833 | 38.60617 | 11241 ft | 251 kts | 341° |
| 2026-05-05 10:45 | 8.83497 | 38.60332 | 10917 ft | 238 kts | 5° |
| 2026-05-05 10:45 | 8.85089 | 38.60557 | 10667 ft | 234 kts | 14° |
| 2026-05-05 10:45 | 8.86702 | 38.60951 | 10375 ft | 235 kts | 20° |
| 2026-05-05 10:45 | 8.88085 | 38.61697 | 10231 ft | 224 kts | 37° |
| 2026-05-05 10:46 | 8.89325 | 38.62621 | 10108 ft | 215 kts | 39° |
| 2026-05-05 10:46 | 8.90496 | 38.63514 | 9952 ft | 209 kts | 40° |
| 2026-05-05 10:46 | 8.91620 | 38.64369 | 9805 ft | 198 kts | 40° |
| 2026-05-05 10:46 | 8.92608 | 38.65255 | 9648 ft | 180 kts | 50° |
| 2026-05-05 10:47 | 8.93304 | 38.66304 | 9645 ft | 183 kts | 61° |
| 2026-05-05 10:47 | 8.93923 | 38.67413 | 9591 ft | 177 kts | 62° |
| 2026-05-05 10:47 | 8.94477 | 38.68509 | 9511 ft | 172 kts | 66° |
| 2026-05-05 10:47 | 8.94855 | 38.69617 | 9319 ft | 163 kts | 72° |
| 2026-05-05 10:48 | 8.95172 | 38.70674 | 9176 ft | 153 kts | 73° |
| 2026-05-05 10:48 | 8.95485 | 38.71705 | 8981 ft | 155 kts | 73° |
| 2026-05-05 10:48 | 8.95810 | 38.72749 | 8774 ft | 156 kts | 72° |
| 2026-05-05 10:48 | 8.96136 | 38.73794 | 8592 ft | 156 kts | 74° |
| 2026-05-05 10:49 | 8.96361 | 38.74642 | 8419 ft | 156 kts | 76° |
| 2026-05-05 10:49 | 8.96660 | 38.75686 | 8200 ft | 153 kts | 77° |
| 2026-05-05 10:49 | 8.96949 | 38.76708 | 7987 ft | 155 kts | 77° |
| 2026-05-05 10:49 | 8.97254 | 38.77746 | 7781 ft | 154 kts | 76° |
| 2026-05-05 10:50 | 8.97572 | 38.78791 | 7650 ft | 152 kts | 77° |
| 2026-05-05 10:50 | 8.97832 | 38.79721 | 7626 ft | 111 kts | 73° |
| 2026-05-05 10:50 | 8.97976 | 38.80215 | 7629 ft | 26 kts | 73° |
| 2026-05-05 10:50 | 8.97988 | 38.80254 | 7630 ft | 4 kts | 73° |
| 2026-05-05 10:51 | 8.97996 | 38.80281 | 7630 ft | 4 kts | 73° |
| 2026-05-05 10:51 | 8.98006 | 38.80305 | 7630 ft | 4 kts | 59° |
| 2026-05-05 10:51 | 8.98036 | 38.80320 | 7629 ft | 6 kts | 8° |
| 2026-05-05 10:51 | 8.98090 | 38.80310 | 7628 ft | 11 kts | 348° |
| 2026-05-05 10:52 | 8.98144 | 38.80318 | 7627 ft | 7 kts | 36° |
| 2026-05-05 10:52 | 8.98165 | 38.80357 | 7627 ft | 6 kts | 70° |
| 2026-05-05 10:52 | 8.98180 | 38.80405 | 7627 ft | 8 kts | 72° |
| 2026-05-05 10:52 | 8.98198 | 38.80470 | 7627 ft | 10 kts | 74° |
| 2026-05-05 10:53 | 8.98221 | 38.80546 | 7627 ft | 12 kts | 73° |
| 2026-05-05 10:53 | 8.98247 | 38.80637 | 7627 ft | 15 kts | 73° |
| 2026-05-05 10:53 | 8.98262 | 38.80706 | 7627 ft | 6 kts | 99° |
| 2026-05-05 10:53 | 8.98239 | 38.80727 | 7626 ft | 4 kts | 164° |
| 2026-05-05 10:54 | 8.98199 | 38.80719 | 7626 ft | 8 kts | 199° |
| 2026-05-05 10:54 | 8.98127 | 38.80684 | 7627 ft | 14 kts | 222° |
| 2026-05-05 10:54 | 8.98081 | 38.80575 | 7627 ft | 20 kts | 253° |
| 2026-05-05 10:54 | 8.98038 | 38.80426 | 7628 ft | 20 kts | 253° |
| 2026-05-05 10:55 | 8.98002 | 38.80304 | 7630 ft | 17 kts | 253° |
| 2026-05-05 10:55 | 8.97984 | 38.80196 | 7629 ft | 14 kts | 290° |
| 2026-05-05 10:55 | 8.98064 | 38.80152 | 7628 ft | 14 kts | 345° |
| 2026-05-05 10:55 | 8.98172 | 38.80121 | 7627 ft | 18 kts | 345° |
| 2026-05-05 10:56 | 8.98277 | 38.80066 | 7627 ft | 15 kts | 292° |
| 2026-05-05 10:56 | 8.98261 | 38.79974 | 7627 ft | 13 kts | 254° |
| 2026-05-05 10:56 | 8.98234 | 38.79880 | 7627 ft | 15 kts | 253° |
| 2026-05-05 10:56 | 8.98202 | 38.79771 | 7627 ft | 17 kts | 253° |
| 2026-05-05 10:57 | 8.98146 | 38.79659 | 7627 ft | 18 kts | 225° |
| 2026-05-05 10:57 | 8.98089 | 38.79558 | 7627 ft | 17 kts | 253° |
| 2026-05-05 10:57 | 8.98059 | 38.79457 | 7627 ft | 6 kts | 253° |
| 2026-05-05 10:57 | 8.98038 | 38.79429 | 7626 ft | 4 kts | 206° |
| 2026-05-05 10:58 | 8.98005 | 38.79431 | 7626 ft | 6 kts | 164° |
| 2026-05-05 10:58 | 8.97975 | 38.79440 | 7626 ft | 2 kts | 164° |
| 2026-05-05 10:58 | 8.97971 | 38.79441 | 7626 ft | 0 kts | 164° |
| 2026-05-05 11:04 | 8.97972 | 38.79441 | 7981 ft | 0 kts | 164° |